sensor_id;sensor_type;location;lat;lon;timestamp;P1;durP1;ratioP1;P2;durP2;ratioP2
74170;SDS011;62526;50.948;6.590;2024-02-15T00:01:00;9.52;;;2.42;;
74170;SDS011;62526;50.948;6.590;2024-02-15T00:03:27;10.57;;;3.25;;
74170;SDS011;62526;50.948;6.590;2024-02-15T00:05:54;9.70;;;2.55;;
74170;SDS011;62526;50.948;6.590;2024-02-15T00:08:22;9.80;;;3.12;;
74170;SDS011;62526;50.948;6.590;2024-02-15T00:10:49;7.90;;;2.75;;
74170;SDS011;62526;50.948;6.590;2024-02-15T00:13:16;5.37;;;2.78;;
74170;SDS011;62526;50.948;6.590;2024-02-15T00:15:43;8.50;;;2.95;;
74170;SDS011;62526;50.948;6.590;2024-02-15T00:18:10;9.30;;;2.90;;
74170;SDS011;62526;50.948;6.590;2024-02-15T00:20:37;9.88;;;3.20;;
74170;SDS011;62526;50.948;6.590;2024-02-15T00:23:04;7.45;;;2.97;;
74170;SDS011;62526;50.948;6.590;2024-02-15T00:25:32;6.12;;;2.42;;
74170;SDS011;62526;50.948;6.590;2024-02-15T00:27:58;9.98;;;2.60;;
74170;SDS011;62526;50.948;6.590;2024-02-15T00:30:26;6.28;;;2.83;;
74170;SDS011;62526;50.948;6.590;2024-02-15T00:32:53;6.65;;;2.28;;
74170;SDS011;62526;50.948;6.590;2024-02-15T00:35:21;9.75;;;2.83;;
74170;SDS011;62526;50.948;6.590;2024-02-15T00:37:47;7.05;;;3.03;;
74170;SDS011;62526;50.948;6.590;2024-02-15T00:40:14;6.28;;;2.50;;
74170;SDS011;62526;50.948;6.590;2024-02-15T00:42:41;9.60;;;3.35;;
74170;SDS011;62526;50.948;6.590;2024-02-15T00:45:09;4.85;;;2.97;;
74170;SDS011;62526;50.948;6.590;2024-02-15T00:47:36;5.70;;;2.40;;
74170;SDS011;62526;50.948;6.590;2024-02-15T00:50:04;11.12;;;3.33;;
74170;SDS011;62526;50.948;6.590;2024-02-15T00:52:33;7.03;;;3.33;;
74170;SDS011;62526;50.948;6.590;2024-02-15T00:55:00;12.13;;;3.53;;
74170;SDS011;62526;50.948;6.590;2024-02-15T00:57:27;10.07;;;3.45;;
74170;SDS011;62526;50.948;6.590;2024-02-15T00:59:54;9.20;;;3.28;;
74170;SDS011;62526;50.948;6.590;2024-02-15T01:02:21;10.40;;;3.60;;
74170;SDS011;62526;50.948;6.590;2024-02-15T01:04:48;7.78;;;3.40;;
74170;SDS011;62526;50.948;6.590;2024-02-15T01:07:15;9.32;;;3.40;;
74170;SDS011;62526;50.948;6.590;2024-02-15T01:09:42;9.73;;;3.25;;
74170;SDS011;62526;50.948;6.590;2024-02-15T01:12:09;9.30;;;3.12;;
74170;SDS011;62526;50.948;6.590;2024-02-15T01:14:36;11.00;;;3.00;;
74170;SDS011;62526;50.948;6.590;2024-02-15T01:17:03;12.30;;;3.72;;
74170;SDS011;62526;50.948;6.590;2024-02-15T01:19:30;7.47;;;3.65;;
74170;SDS011;62526;50.948;6.590;2024-02-15T01:21:57;9.77;;;3.30;;
74170;SDS011;62526;50.948;6.590;2024-02-15T01:24:23;16.75;;;3.12;;
74170;SDS011;62526;50.948;6.590;2024-02-15T01:26:50;10.02;;;3.53;;
74170;SDS011;62526;50.948;6.590;2024-02-15T01:29:17;8.90;;;3.20;;
74170;SDS011;62526;50.948;6.590;2024-02-15T01:31:44;10.75;;;3.62;;
74170;SDS011;62526;50.948;6.590;2024-02-15T01:34:11;6.65;;;2.95;;
74170;SDS011;62526;50.948;6.590;2024-02-15T01:36:38;12.48;;;3.30;;
74170;SDS011;62526;50.948;6.590;2024-02-15T01:39:06;11.15;;;3.55;;
74170;SDS011;62526;50.948;6.590;2024-02-15T01:41:33;10.10;;;3.42;;
74170;SDS011;62526;50.948;6.590;2024-02-15T01:44:00;7.85;;;2.85;;
74170;SDS011;62526;50.948;6.590;2024-02-15T01:46:27;8.50;;;3.92;;
74170;SDS011;62526;50.948;6.590;2024-02-15T01:48:54;13.10;;;3.35;;
74170;SDS011;62526;50.948;6.590;2024-02-15T01:51:21;7.50;;;2.40;;
74170;SDS011;62526;50.948;6.590;2024-02-15T01:53:49;10.18;;;3.12;;
74170;SDS011;62526;50.948;6.590;2024-02-15T01:56:15;7.70;;;2.47;;
74170;SDS011;62526;50.948;6.590;2024-02-15T01:58:43;9.88;;;3.03;;
74170;SDS011;62526;50.948;6.590;2024-02-15T02:01:10;10.32;;;3.03;;
74170;SDS011;62526;50.948;6.590;2024-02-15T02:03:38;11.05;;;3.20;;
74170;SDS011;62526;50.948;6.590;2024-02-15T02:06:04;8.75;;;2.60;;
74170;SDS011;62526;50.948;6.590;2024-02-15T02:08:32;5.68;;;2.75;;
74170;SDS011;62526;50.948;6.590;2024-02-15T02:10:58;8.65;;;2.80;;
74170;SDS011;62526;50.948;6.590;2024-02-15T02:13:26;7.40;;;2.42;;
74170;SDS011;62526;50.948;6.590;2024-02-15T02:15:53;6.75;;;2.37;;
74170;SDS011;62526;50.948;6.590;2024-02-15T02:18:19;7.43;;;2.92;;
74170;SDS011;62526;50.948;6.590;2024-02-15T02:20:47;7.68;;;2.20;;
74170;SDS011;62526;50.948;6.590;2024-02-15T02:23:14;12.35;;;2.35;;
74170;SDS011;62526;50.948;6.590;2024-02-15T02:25:41;6.55;;;2.58;;
74170;SDS011;62526;50.948;6.590;2024-02-15T02:28:08;7.47;;;2.65;;
74170;SDS011;62526;50.948;6.590;2024-02-15T02:33:20;8.23;;;2.28;;
74170;SDS011;62526;50.948;6.590;2024-02-15T02:35:47;4.65;;;2.30;;
74170;SDS011;62526;50.948;6.590;2024-02-15T02:38:14;5.87;;;2.47;;
74170;SDS011;62526;50.948;6.590;2024-02-15T02:40:42;5.65;;;2.05;;
74170;SDS011;62526;50.948;6.590;2024-02-15T02:43:09;5.80;;;2.37;;
74170;SDS011;62526;50.948;6.590;2024-02-15T02:45:36;2.22;;;1.60;;
74170;SDS011;62526;50.948;6.590;2024-02-15T02:48:03;5.07;;;2.28;;
74170;SDS011;62526;50.948;6.590;2024-02-15T02:50:30;5.22;;;1.85;;
74170;SDS011;62526;50.948;6.590;2024-02-15T02:52:57;5.97;;;1.87;;
74170;SDS011;62526;50.948;6.590;2024-02-15T02:55:25;4.35;;;1.85;;
74170;SDS011;62526;50.948;6.590;2024-02-15T02:57:52;5.60;;;1.73;;
74170;SDS011;62526;50.948;6.590;2024-02-15T03:00:19;4.57;;;2.10;;
74170;SDS011;62526;50.948;6.590;2024-02-15T03:02:46;8.13;;;2.25;;
74170;SDS011;62526;50.948;6.590;2024-02-15T03:05:14;4.45;;;2.12;;
74170;SDS011;62526;50.948;6.590;2024-02-15T03:07:40;1.67;;;1.48;;
74170;SDS011;62526;50.948;6.590;2024-02-15T03:10:07;4.32;;;1.83;;
74170;SDS011;62526;50.948;6.590;2024-02-15T03:12:36;3.12;;;1.62;;
74170;SDS011;62526;50.948;6.590;2024-02-15T03:15:04;4.82;;;1.70;;
74170;SDS011;62526;50.948;6.590;2024-02-15T03:17:31;8.02;;;1.98;;
74170;SDS011;62526;50.948;6.590;2024-02-15T03:19:58;2.30;;;1.92;;
74170;SDS011;62526;50.948;6.590;2024-02-15T03:22:25;9.23;;;2.87;;
74170;SDS011;62526;50.948;6.590;2024-02-15T03:24:52;4.95;;;1.80;;
74170;SDS011;62526;50.948;6.590;2024-02-15T03:27:19;2.50;;;1.70;;
74170;SDS011;62526;50.948;6.590;2024-02-15T03:29:46;2.85;;;2.10;;
74170;SDS011;62526;50.948;6.590;2024-02-15T03:32:13;3.90;;;2.00;;
74170;SDS011;62526;50.948;6.590;2024-02-15T03:34:43;3.12;;;1.80;;
74170;SDS011;62526;50.948;6.590;2024-02-15T03:37:10;2.95;;;2.28;;
74170;SDS011;62526;50.948;6.590;2024-02-15T03:39:37;2.35;;;1.85;;
74170;SDS011;62526;50.948;6.590;2024-02-15T03:42:04;2.50;;;1.95;;
74170;SDS011;62526;50.948;6.590;2024-02-15T03:44:30;6.15;;;1.80;;
74170;SDS011;62526;50.948;6.590;2024-02-15T03:46:57;5.07;;;1.75;;
74170;SDS011;62526;50.948;6.590;2024-02-15T03:49:24;2.83;;;1.73;;
74170;SDS011;62526;50.948;6.590;2024-02-15T03:51:51;3.03;;;2.00;;
74170;SDS011;62526;50.948;6.590;2024-02-15T03:54:19;4.47;;;2.12;;
74170;SDS011;62526;50.948;6.590;2024-02-15T03:56:47;4.43;;;2.10;;
74170;SDS011;62526;50.948;6.590;2024-02-15T03:59:14;2.65;;;2.25;;
74170;SDS011;62526;50.948;6.590;2024-02-15T04:01:41;4.85;;;2.20;;
74170;SDS011;62526;50.948;6.590;2024-02-15T04:04:08;3.92;;;1.80;;
74170;SDS011;62526;50.948;6.590;2024-02-15T04:06:35;4.35;;;2.10;;
74170;SDS011;62526;50.948;6.590;2024-02-15T04:09:02;4.10;;;2.00;;
74170;SDS011;62526;50.948;6.590;2024-02-15T04:11:29;6.30;;;2.33;;
74170;SDS011;62526;50.948;6.590;2024-02-15T04:13:56;2.45;;;1.90;;
74170;SDS011;62526;50.948;6.590;2024-02-15T04:16:23;3.50;;;2.05;;
74170;SDS011;62526;50.948;6.590;2024-02-15T04:18:50;3.92;;;2.20;;
74170;SDS011;62526;50.948;6.590;2024-02-15T04:21:17;7.20;;;1.83;;
74170;SDS011;62526;50.948;6.590;2024-02-15T04:23:44;4.75;;;2.05;;
74170;SDS011;62526;50.948;6.590;2024-02-15T04:26:11;3.08;;;1.95;;
74170;SDS011;62526;50.948;6.590;2024-02-15T04:28:40;4.37;;;1.95;;
74170;SDS011;62526;50.948;6.590;2024-02-15T04:31:06;3.55;;;2.25;;
74170;SDS011;62526;50.948;6.590;2024-02-15T04:33:34;8.38;;;2.65;;
74170;SDS011;62526;50.948;6.590;2024-02-15T04:36:02;3.60;;;2.30;;
74170;SDS011;62526;50.948;6.590;2024-02-15T04:38:31;5.22;;;2.20;;
74170;SDS011;62526;50.948;6.590;2024-02-15T04:40:58;5.65;;;2.12;;
74170;SDS011;62526;50.948;6.590;2024-02-15T04:43:25;5.35;;;2.33;;
74170;SDS011;62526;50.948;6.590;2024-02-15T04:45:52;4.75;;;2.37;;
74170;SDS011;62526;50.948;6.590;2024-02-15T04:48:19;5.18;;;2.50;;
74170;SDS011;62526;50.948;6.590;2024-02-15T04:50:46;5.28;;;2.37;;
74170;SDS011;62526;50.948;6.590;2024-02-15T04:53:13;7.47;;;2.72;;
74170;SDS011;62526;50.948;6.590;2024-02-15T04:55:40;7.50;;;2.60;;
74170;SDS011;62526;50.948;6.590;2024-02-15T04:58:07;7.28;;;1.95;;
74170;SDS011;62526;50.948;6.590;2024-02-15T05:00:34;3.90;;;2.33;;
74170;SDS011;62526;50.948;6.590;2024-02-15T05:03:01;4.30;;;2.03;;
74170;SDS011;62526;50.948;6.590;2024-02-15T05:05:28;7.18;;;2.58;;
74170;SDS011;62526;50.948;6.590;2024-02-15T05:07:55;5.82;;;2.50;;
74170;SDS011;62526;50.948;6.590;2024-02-15T05:10:22;6.15;;;2.42;;
74170;SDS011;62526;50.948;6.590;2024-02-15T05:12:49;5.15;;;2.53;;
74170;SDS011;62526;50.948;6.590;2024-02-15T05:15:17;5.28;;;2.33;;
74170;SDS011;62526;50.948;6.590;2024-02-15T05:17:44;3.05;;;1.90;;
74170;SDS011;62526;50.948;6.590;2024-02-15T05:20:13;3.62;;;2.25;;
74170;SDS011;62526;50.948;6.590;2024-02-15T05:22:41;6.78;;;2.58;;
74170;SDS011;62526;50.948;6.590;2024-02-15T05:25:09;5.62;;;3.00;;
74170;SDS011;62526;50.948;6.590;2024-02-15T05:27:36;5.93;;;2.50;;
74170;SDS011;62526;50.948;6.590;2024-02-15T05:30:03;4.90;;;2.37;;
74170;SDS011;62526;50.948;6.590;2024-02-15T05:32:33;5.65;;;2.58;;
74170;SDS011;62526;50.948;6.590;2024-02-15T05:35:00;8.73;;;2.40;;
74170;SDS011;62526;50.948;6.590;2024-02-15T05:37:26;6.43;;;2.30;;
74170;SDS011;62526;50.948;6.590;2024-02-15T05:39:53;3.67;;;2.40;;
74170;SDS011;62526;50.948;6.590;2024-02-15T05:42:21;9.45;;;2.42;;
74170;SDS011;62526;50.948;6.590;2024-02-15T05:44:47;10.55;;;2.65;;
74170;SDS011;62526;50.948;6.590;2024-02-15T05:47:15;4.03;;;2.33;;
74170;SDS011;62526;50.948;6.590;2024-02-15T05:49:41;13.05;;;3.40;;
74170;SDS011;62526;50.948;6.590;2024-02-15T05:52:10;7.35;;;2.70;;
74170;SDS011;62526;50.948;6.590;2024-02-15T05:54:36;8.10;;;2.72;;
74170;SDS011;62526;50.948;6.590;2024-02-15T05:57:03;8.70;;;2.80;;
74170;SDS011;62526;50.948;6.590;2024-02-15T05:59:30;9.55;;;2.40;;
74170;SDS011;62526;50.948;6.590;2024-02-15T06:01:57;8.13;;;2.42;;
74170;SDS011;62526;50.948;6.590;2024-02-15T06:04:24;7.07;;;2.17;;
74170;SDS011;62526;50.948;6.590;2024-02-15T06:06:51;10.27;;;2.62;;
74170;SDS011;62526;50.948;6.590;2024-02-15T06:09:18;8.98;;;2.65;;
74170;SDS011;62526;50.948;6.590;2024-02-15T06:11:45;10.30;;;2.78;;
74170;SDS011;62526;50.948;6.590;2024-02-15T06:14:11;5.85;;;2.20;;
74170;SDS011;62526;50.948;6.590;2024-02-15T06:16:43;6.03;;;3.20;;
74170;SDS011;62526;50.948;6.590;2024-02-15T06:19:10;7.53;;;2.67;;
74170;SDS011;62526;50.948;6.590;2024-02-15T06:21:37;8.57;;;2.95;;
74170;SDS011;62526;50.948;6.590;2024-02-15T06:24:04;11.50;;;2.87;;
74170;SDS011;62526;50.948;6.590;2024-02-15T06:26:30;10.48;;;2.90;;
74170;SDS011;62526;50.948;6.590;2024-02-15T06:28:57;8.57;;;2.97;;
74170;SDS011;62526;50.948;6.590;2024-02-15T06:31:30;6.87;;;2.72;;
74170;SDS011;62526;50.948;6.590;2024-02-15T06:34:03;9.65;;;3.20;;
74170;SDS011;62526;50.948;6.590;2024-02-15T06:36:40;9.52;;;3.87;;
74170;SDS011;62526;50.948;6.590;2024-02-15T06:39:13;5.28;;;2.40;;
74170;SDS011;62526;50.948;6.590;2024-02-15T06:41:46;10.15;;;2.87;;
74170;SDS011;62526;50.948;6.590;2024-02-15T06:44:13;8.27;;;3.10;;
74170;SDS011;62526;50.948;6.590;2024-02-15T06:46:40;12.40;;;3.30;;
74170;SDS011;62526;50.948;6.590;2024-02-15T06:49:07;13.45;;;3.40;;
74170;SDS011;62526;50.948;6.590;2024-02-15T06:51:34;6.82;;;2.80;;
74170;SDS011;62526;50.948;6.590;2024-02-15T06:54:01;10.93;;;4.12;;
74170;SDS011;62526;50.948;6.590;2024-02-15T06:56:28;8.65;;;3.20;;
74170;SDS011;62526;50.948;6.590;2024-02-15T06:58:56;10.32;;;4.00;;
74170;SDS011;62526;50.948;6.590;2024-02-15T07:01:23;4.62;;;2.70;;
74170;SDS011;62526;50.948;6.590;2024-02-15T07:03:50;10.52;;;2.75;;
74170;SDS011;62526;50.948;6.590;2024-02-15T07:06:17;13.05;;;3.55;;
74170;SDS011;62526;50.948;6.590;2024-02-15T07:08:44;6.25;;;2.53;;
74170;SDS011;62526;50.948;6.590;2024-02-15T07:11:11;6.53;;;2.53;;
74170;SDS011;62526;50.948;6.590;2024-02-15T07:13:38;9.73;;;2.60;;
74170;SDS011;62526;50.948;6.590;2024-02-15T07:16:07;5.75;;;2.20;;
74170;SDS011;62526;50.948;6.590;2024-02-15T07:18:33;7.47;;;2.33;;
74170;SDS011;62526;50.948;6.590;2024-02-15T07:21:02;6.85;;;2.47;;
74170;SDS011;62526;50.948;6.590;2024-02-15T07:23:29;6.47;;;2.10;;
74170;SDS011;62526;50.948;6.590;2024-02-15T07:25:56;3.87;;;1.85;;
74170;SDS011;62526;50.948;6.590;2024-02-15T07:28:23;4.85;;;2.40;;
74170;SDS011;62526;50.948;6.590;2024-02-15T07:30:52;4.90;;;2.65;;
74170;SDS011;62526;50.948;6.590;2024-02-15T07:33:19;6.12;;;2.35;;
74170;SDS011;62526;50.948;6.590;2024-02-15T07:35:46;4.95;;;2.00;;
74170;SDS011;62526;50.948;6.590;2024-02-15T07:38:14;2.62;;;1.85;;
74170;SDS011;62526;50.948;6.590;2024-02-15T07:40:41;3.78;;;1.98;;
74170;SDS011;62526;50.948;6.590;2024-02-15T07:43:08;3.03;;;1.95;;
74170;SDS011;62526;50.948;6.590;2024-02-15T07:45:35;5.53;;;2.45;;
74170;SDS011;62526;50.948;6.590;2024-02-15T07:48:03;4.03;;;2.10;;
74170;SDS011;62526;50.948;6.590;2024-02-15T07:50:31;5.07;;;2.00;;
74170;SDS011;62526;50.948;6.590;2024-02-15T07:52:57;8.85;;;2.08;;
74170;SDS011;62526;50.948;6.590;2024-02-15T07:55:24;8.10;;;2.87;;
74170;SDS011;62526;50.948;6.590;2024-02-15T07:57:51;9.82;;;2.30;;
74170;SDS011;62526;50.948;6.590;2024-02-15T08:00:18;5.62;;;2.28;;
74170;SDS011;62526;50.948;6.590;2024-02-15T08:02:45;5.87;;;2.45;;
74170;SDS011;62526;50.948;6.590;2024-02-15T08:05:12;10.00;;;2.62;;
74170;SDS011;62526;50.948;6.590;2024-02-15T08:07:41;11.93;;;2.42;;
74170;SDS011;62526;50.948;6.590;2024-02-15T08:10:07;5.35;;;2.12;;
74170;SDS011;62526;50.948;6.590;2024-02-15T08:12:35;9.00;;;2.15;;
74170;SDS011;62526;50.948;6.590;2024-02-15T08:15:03;3.30;;;1.98;;
74170;SDS011;62526;50.948;6.590;2024-02-15T08:17:30;3.70;;;2.10;;
74170;SDS011;62526;50.948;6.590;2024-02-15T08:19:58;6.85;;;2.08;;
74170;SDS011;62526;50.948;6.590;2024-02-15T08:22:25;5.78;;;2.25;;
74170;SDS011;62526;50.948;6.590;2024-02-15T08:24:52;3.83;;;1.85;;
74170;SDS011;62526;50.948;6.590;2024-02-15T08:27:19;7.65;;;2.62;;
74170;SDS011;62526;50.948;6.590;2024-02-15T08:29:47;9.20;;;2.28;;
74170;SDS011;62526;50.948;6.590;2024-02-15T08:32:14;5.25;;;2.33;;
74170;SDS011;62526;50.948;6.590;2024-02-15T08:34:41;9.43;;;2.30;;
74170;SDS011;62526;50.948;6.590;2024-02-15T08:37:08;3.75;;;1.92;;
74170;SDS011;62526;50.948;6.590;2024-02-15T08:39:35;5.00;;;2.15;;
74170;SDS011;62526;50.948;6.590;2024-02-15T08:42:03;5.97;;;1.85;;
74170;SDS011;62526;50.948;6.590;2024-02-15T08:44:29;7.37;;;2.00;;
74170;SDS011;62526;50.948;6.590;2024-02-15T08:46:56;7.68;;;2.42;;
74170;SDS011;62526;50.948;6.590;2024-02-15T08:49:24;8.05;;;2.00;;
74170;SDS011;62526;50.948;6.590;2024-02-15T08:51:51;4.30;;;1.92;;
74170;SDS011;62526;50.948;6.590;2024-02-15T08:54:21;4.00;;;1.70;;
74170;SDS011;62526;50.948;6.590;2024-02-15T08:57:02;5.90;;;2.00;;
74170;SDS011;62526;50.948;6.590;2024-02-15T08:59:36;3.03;;;1.80;;
74170;SDS011;62526;50.948;6.590;2024-02-15T09:02:02;4.25;;;1.85;;
74170;SDS011;62526;50.948;6.590;2024-02-15T09:04:30;7.22;;;2.08;;
74170;SDS011;62526;50.948;6.590;2024-02-15T09:06:56;5.62;;;1.90;;
74170;SDS011;62526;50.948;6.590;2024-02-15T09:09:24;7.00;;;2.42;;
74170;SDS011;62526;50.948;6.590;2024-02-15T09:11:51;4.75;;;2.10;;
74170;SDS011;62526;50.948;6.590;2024-02-15T09:14:19;3.75;;;2.00;;
74170;SDS011;62526;50.948;6.590;2024-02-15T09:16:45;5.00;;;2.42;;
74170;SDS011;62526;50.948;6.590;2024-02-15T09:19:13;3.35;;;2.00;;
74170;SDS011;62526;50.948;6.590;2024-02-15T09:21:39;4.60;;;2.03;;
74170;SDS011;62526;50.948;6.590;2024-02-15T09:24:07;5.25;;;2.22;;
74170;SDS011;62526;50.948;6.590;2024-02-15T09:26:34;4.28;;;2.00;;
74170;SDS011;62526;50.948;6.590;2024-02-15T09:29:00;7.07;;;2.10;;
74170;SDS011;62526;50.948;6.590;2024-02-15T09:31:28;4.85;;;2.05;;
74170;SDS011;62526;50.948;6.590;2024-02-15T09:33:54;5.32;;;2.08;;
74170;SDS011;62526;50.948;6.590;2024-02-15T09:36:22;5.30;;;1.92;;
74170;SDS011;62526;50.948;6.590;2024-02-15T09:38:48;4.95;;;2.20;;
74170;SDS011;62526;50.948;6.590;2024-02-15T09:41:16;5.72;;;1.90;;
74170;SDS011;62526;50.948;6.590;2024-02-15T09:43:42;6.43;;;2.03;;
74170;SDS011;62526;50.948;6.590;2024-02-15T09:46:09;3.35;;;2.03;;
74170;SDS011;62526;50.948;6.590;2024-02-15T09:48:36;7.57;;;2.20;;
74170;SDS011;62526;50.948;6.590;2024-02-15T09:51:04;4.68;;;2.15;;
74170;SDS011;62526;50.948;6.590;2024-02-15T09:53:31;4.32;;;1.83;;
74170;SDS011;62526;50.948;6.590;2024-02-15T09:55:58;4.45;;;2.03;;
74170;SDS011;62526;50.948;6.590;2024-02-15T09:58:26;3.47;;;1.70;;
74170;SDS011;62526;50.948;6.590;2024-02-15T10:00:53;4.97;;;1.92;;
74170;SDS011;62526;50.948;6.590;2024-02-15T10:03:20;3.00;;;1.80;;
74170;SDS011;62526;50.948;6.590;2024-02-15T10:05:48;5.28;;;1.90;;
74170;SDS011;62526;50.948;6.590;2024-02-15T10:08:15;3.20;;;1.90;;
74170;SDS011;62526;50.948;6.590;2024-02-15T10:10:43;4.75;;;1.90;;
74170;SDS011;62526;50.948;6.590;2024-02-15T10:13:13;5.28;;;2.03;;
74170;SDS011;62526;50.948;6.590;2024-02-15T10:15:40;7.10;;;2.10;;
74170;SDS011;62526;50.948;6.590;2024-02-15T10:18:08;5.57;;;2.03;;
74170;SDS011;62526;50.948;6.590;2024-02-15T10:20:34;5.22;;;2.37;;
74170;SDS011;62526;50.948;6.590;2024-02-15T10:25:44;6.40;;;2.00;;
74170;SDS011;62526;50.948;6.590;2024-02-15T10:28:11;5.60;;;1.92;;
74170;SDS011;62526;50.948;6.590;2024-02-15T10:30:38;5.00;;;2.10;;
74170;SDS011;62526;50.948;6.590;2024-02-15T10:33:05;5.45;;;2.10;;
74170;SDS011;62526;50.948;6.590;2024-02-15T10:35:33;4.05;;;2.28;;
74170;SDS011;62526;50.948;6.590;2024-02-15T10:38:05;5.57;;;2.45;;
74170;SDS011;62526;50.948;6.590;2024-02-15T10:40:30;6.53;;;1.98;;
74170;SDS011;62526;50.948;6.590;2024-02-15T10:42:57;3.70;;;1.70;;
74170;SDS011;62526;50.948;6.590;2024-02-15T10:45:25;4.62;;;1.67;;
74170;SDS011;62526;50.948;6.590;2024-02-15T10:47:56;7.47;;;1.92;;
74170;SDS011;62526;50.948;6.590;2024-02-15T10:50:26;2.75;;;2.00;;
74170;SDS011;62526;50.948;6.590;2024-02-15T10:52:54;3.40;;;1.80;;
74170;SDS011;62526;50.948;6.590;2024-02-15T10:55:25;4.60;;;1.52;;
74170;SDS011;62526;50.948;6.590;2024-02-15T10:57:50;7.40;;;2.05;;
74170;SDS011;62526;50.948;6.590;2024-02-15T11:00:16;3.40;;;2.40;;
74170;SDS011;62526;50.948;6.590;2024-02-15T11:02:50;5.43;;;1.70;;
74170;SDS011;62526;50.948;6.590;2024-02-15T11:05:33;4.28;;;1.95;;
74170;SDS011;62526;50.948;6.590;2024-02-15T11:07:59;3.22;;;1.90;;
74170;SDS011;62526;50.948;6.590;2024-02-15T11:10:26;3.20;;;1.50;;
74170;SDS011;62526;50.948;6.590;2024-02-15T11:12:53;4.55;;;1.67;;
74170;SDS011;62526;50.948;6.590;2024-02-15T11:18:51;4.82;;;1.55;;
74170;SDS011;62526;50.948;6.590;2024-02-15T11:21:07;3.78;;;1.48;;
74170;SDS011;62526;50.948;6.590;2024-02-15T11:23:35;4.50;;;1.60;;
74170;SDS011;62526;50.948;6.590;2024-02-15T11:26:02;7.85;;;2.05;;
74170;SDS011;62526;50.948;6.590;2024-02-15T11:28:34;2.55;;;1.50;;
74170;SDS011;62526;50.948;6.590;2024-02-15T11:31:02;7.55;;;1.65;;
74170;SDS011;62526;50.948;6.590;2024-02-15T11:33:31;1.83;;;1.10;;
74170;SDS011;62526;50.948;6.590;2024-02-15T11:36:02;5.03;;;1.30;;
74170;SDS011;62526;50.948;6.590;2024-02-15T11:38:32;5.22;;;1.33;;
74170;SDS011;62526;50.948;6.590;2024-02-15T11:41:00;5.97;;;1.60;;
74170;SDS011;62526;50.948;6.590;2024-02-15T11:46:16;4.18;;;1.25;;
74170;SDS011;62526;50.948;6.590;2024-02-15T11:48:43;3.87;;;1.37;;
74170;SDS011;62526;50.948;6.590;2024-02-15T11:51:10;4.43;;;1.50;;
74170;SDS011;62526;50.948;6.590;2024-02-15T11:53:38;4.45;;;1.50;;
74170;SDS011;62526;50.948;6.590;2024-02-15T11:56:04;4.22;;;1.45;;
74170;SDS011;62526;50.948;6.590;2024-02-15T11:58:32;3.80;;;1.55;;
74170;SDS011;62526;50.948;6.590;2024-02-15T12:00:59;3.35;;;1.40;;
74170;SDS011;62526;50.948;6.590;2024-02-15T12:03:31;2.53;;;1.37;;
74170;SDS011;62526;50.948;6.590;2024-02-15T12:06:04;4.07;;;1.50;;
74170;SDS011;62526;50.948;6.590;2024-02-15T12:08:36;3.45;;;1.45;;
74170;SDS011;62526;50.948;6.590;2024-02-15T12:11:09;1.20;;;1.10;;
74170;SDS011;62526;50.948;6.590;2024-02-15T12:13:41;2.40;;;1.48;;
74170;SDS011;62526;50.948;6.590;2024-02-15T12:16:15;2.20;;;1.50;;
74170;SDS011;62526;50.948;6.590;2024-02-15T12:18:46;6.70;;;1.70;;
74170;SDS011;62526;50.948;6.590;2024-02-15T12:21:16;3.78;;;1.17;;
74170;SDS011;62526;50.948;6.590;2024-02-15T12:23:41;3.72;;;1.20;;
74170;SDS011;62526;50.948;6.590;2024-02-15T12:26:09;5.15;;;1.45;;
74170;SDS011;62526;50.948;6.590;2024-02-15T12:28:35;3.40;;;1.30;;
74170;SDS011;62526;50.948;6.590;2024-02-15T12:31:03;3.22;;;1.35;;
74170;SDS011;62526;50.948;6.590;2024-02-15T12:33:29;2.17;;;1.33;;
74170;SDS011;62526;50.948;6.590;2024-02-15T12:36:04;2.28;;;1.20;;
74170;SDS011;62526;50.948;6.590;2024-02-15T12:38:31;6.37;;;1.50;;
74170;SDS011;62526;50.948;6.590;2024-02-15T12:40:57;3.37;;;1.33;;
74170;SDS011;62526;50.948;6.590;2024-02-15T12:43:25;2.05;;;1.40;;
74170;SDS011;62526;50.948;6.590;2024-02-15T12:45:52;2.70;;;1.25;;
74170;SDS011;62526;50.948;6.590;2024-02-15T12:48:20;4.50;;;1.25;;
74170;SDS011;62526;50.948;6.590;2024-02-15T12:50:47;2.08;;;1.33;;
74170;SDS011;62526;50.948;6.590;2024-02-15T12:53:22;3.22;;;1.65;;
74170;SDS011;62526;50.948;6.590;2024-02-15T12:55:52;1.90;;;1.20;;
74170;SDS011;62526;50.948;6.590;2024-02-15T12:58:19;4.53;;;1.27;;
74170;SDS011;62526;50.948;6.590;2024-02-15T13:00:46;3.10;;;1.35;;
74170;SDS011;62526;50.948;6.590;2024-02-15T13:03:13;4.65;;;1.67;;
74170;SDS011;62526;50.948;6.590;2024-02-15T13:05:40;2.62;;;1.55;;
74170;SDS011;62526;50.948;6.590;2024-02-15T13:08:08;2.70;;;1.45;;
74170;SDS011;62526;50.948;6.590;2024-02-15T13:10:36;3.22;;;1.45;;
74170;SDS011;62526;50.948;6.590;2024-02-15T13:13:03;2.58;;;1.30;;
74170;SDS011;62526;50.948;6.590;2024-02-15T13:15:31;7.32;;;1.83;;
74170;SDS011;62526;50.948;6.590;2024-02-15T13:17:59;1.83;;;1.15;;
74170;SDS011;62526;50.948;6.590;2024-02-15T13:20:26;1.30;;;1.20;;
74170;SDS011;62526;50.948;6.590;2024-02-15T13:22:59;6.07;;;1.40;;
74170;SDS011;62526;50.948;6.590;2024-02-15T13:25:26;1.48;;;1.25;;
74170;SDS011;62526;50.948;6.590;2024-02-15T13:27:53;4.97;;;1.80;;
74170;SDS011;62526;50.948;6.590;2024-02-15T13:30:20;3.65;;;1.40;;
74170;SDS011;62526;50.948;6.590;2024-02-15T13:32:48;4.65;;;1.67;;
74170;SDS011;62526;50.948;6.590;2024-02-15T13:35:14;3.25;;;1.40;;
74170;SDS011;62526;50.948;6.590;2024-02-15T13:37:41;3.60;;;1.70;;
74170;SDS011;62526;50.948;6.590;2024-02-15T13:40:09;4.32;;;1.48;;
74170;SDS011;62526;50.948;6.590;2024-02-15T13:42:36;3.85;;;1.60;;
74170;SDS011;62526;50.948;6.590;2024-02-15T13:45:02;4.05;;;2.95;;
74170;SDS011;62526;50.948;6.590;2024-02-15T13:47:29;2.62;;;1.62;;
74170;SDS011;62526;50.948;6.590;2024-02-15T13:49:56;3.90;;;1.70;;
74170;SDS011;62526;50.948;6.590;2024-02-15T13:52:23;4.95;;;1.70;;
74170;SDS011;62526;50.948;6.590;2024-02-15T13:54:50;4.78;;;2.20;;
74170;SDS011;62526;50.948;6.590;2024-02-15T13:57:17;3.35;;;2.37;;
74170;SDS011;62526;50.948;6.590;2024-02-15T13:59:44;2.75;;;1.50;;
74170;SDS011;62526;50.948;6.590;2024-02-15T14:02:11;3.83;;;1.70;;
74170;SDS011;62526;50.948;6.590;2024-02-15T14:04:38;8.13;;;1.98;;
74170;SDS011;62526;50.948;6.590;2024-02-15T14:07:05;4.40;;;1.55;;
74170;SDS011;62526;50.948;6.590;2024-02-15T14:09:31;2.15;;;1.95;;
74170;SDS011;62526;50.948;6.590;2024-02-15T14:11:59;3.20;;;1.60;;
74170;SDS011;62526;50.948;6.590;2024-02-15T14:14:26;1.73;;;1.50;;
74170;SDS011;62526;50.948;6.590;2024-02-15T14:16:53;2.45;;;1.40;;
74170;SDS011;62526;50.948;6.590;2024-02-15T14:19:22;3.62;;;1.35;;
74170;SDS011;62526;50.948;6.590;2024-02-15T14:21:48;5.95;;;1.40;;
74170;SDS011;62526;50.948;6.590;2024-02-15T14:24:15;5.75;;;1.50;;
74170;SDS011;62526;50.948;6.590;2024-02-15T14:26:42;3.15;;;2.00;;
74170;SDS011;62526;50.948;6.590;2024-02-15T14:29:09;3.42;;;1.48;;
74170;SDS011;62526;50.948;6.590;2024-02-15T14:31:37;1.83;;;1.30;;
74170;SDS011;62526;50.948;6.590;2024-02-15T14:34:09;3.05;;;1.58;;
74170;SDS011;62526;50.948;6.590;2024-02-15T14:39:15;2.78;;;1.37;;
74170;SDS011;62526;50.948;6.590;2024-02-15T14:41:42;1.98;;;1.10;;
74170;SDS011;62526;50.948;6.590;2024-02-15T14:44:09;2.42;;;1.60;;
74170;SDS011;62526;50.948;6.590;2024-02-15T14:46:35;3.50;;;1.42;;
74170;SDS011;62526;50.948;6.590;2024-02-15T14:49:02;6.87;;;1.70;;
74170;SDS011;62526;50.948;6.590;2024-02-15T14:51:30;6.18;;;1.55;;
74170;SDS011;62526;50.948;6.590;2024-02-15T14:53:57;6.32;;;1.75;;
74170;SDS011;62526;50.948;6.590;2024-02-15T14:56:23;6.87;;;2.30;;
74170;SDS011;62526;50.948;6.590;2024-02-15T14:58:50;4.80;;;1.52;;
74170;SDS011;62526;50.948;6.590;2024-02-15T15:01:17;1.77;;;1.33;;